sensor_id;sensor_type;location;lat;lon;timestamp;P1;durP1;ratioP1;P2;durP2;ratioP2
23001;SDS011;11667;51.706;4.856;2023-07-31T00:01:11;27.13;;;7.80;;
23001;SDS011;11667;51.706;4.856;2023-07-31T00:03:41;30.90;;;8.33;;
23001;SDS011;11667;51.706;4.856;2023-07-31T00:06:10;27.77;;;7.28;;
23001;SDS011;11667;51.706;4.856;2023-07-31T00:08:43;24.82;;;8.10;;
23001;SDS011;11667;51.706;4.856;2023-07-31T00:11:12;30.05;;;8.18;;
23001;SDS011;11667;51.706;4.856;2023-07-31T00:13:41;25.55;;;8.53;;
23001;SDS011;11667;51.706;4.856;2023-07-31T00:16:11;25.70;;;7.42;;
23001;SDS011;11667;51.706;4.856;2023-07-31T00:18:40;33.95;;;8.08;;
23001;SDS011;11667;51.706;4.856;2023-07-31T00:21:10;26.60;;;7.58;;
23001;SDS011;11667;51.706;4.856;2023-07-31T00:23:39;22.75;;;6.78;;
23001;SDS011;11667;51.706;4.856;2023-07-31T00:26:08;25.77;;;7.00;;
23001;SDS011;11667;51.706;4.856;2023-07-31T00:28:37;30.15;;;7.65;;
23001;SDS011;11667;51.706;4.856;2023-07-31T00:31:07;27.02;;;6.90;;
23001;SDS011;11667;51.706;4.856;2023-07-31T00:33:37;23.05;;;7.15;;
23001;SDS011;11667;51.706;4.856;2023-07-31T00:36:07;26.50;;;7.45;;
23001;SDS011;11667;51.706;4.856;2023-07-31T00:38:37;23.38;;;7.30;;
23001;SDS011;11667;51.706;4.856;2023-07-31T00:41:07;26.60;;;7.35;;
23001;SDS011;11667;51.706;4.856;2023-07-31T00:43:36;27.30;;;7.60;;
23001;SDS011;11667;51.706;4.856;2023-07-31T00:46:07;24.23;;;7.45;;
23001;SDS011;11667;51.706;4.856;2023-07-31T00:48:36;19.60;;;6.58;;
23001;SDS011;11667;51.706;4.856;2023-07-31T00:51:07;22.42;;;7.00;;
23001;SDS011;11667;51.706;4.856;2023-07-31T00:53:37;21.45;;;6.92;;
23001;SDS011;11667;51.706;4.856;2023-07-31T00:56:08;18.40;;;6.70;;
23001;SDS011;11667;51.706;4.856;2023-07-31T00:58:38;25.60;;;6.85;;
23001;SDS011;11667;51.706;4.856;2023-07-31T01:01:08;23.45;;;5.90;;
23001;SDS011;11667;51.706;4.856;2023-07-31T01:03:38;23.47;;;6.15;;
23001;SDS011;11667;51.706;4.856;2023-07-31T01:09:18;17.62;;;5.15;;
23001;SDS011;11667;51.706;4.856;2023-07-31T01:11:52;20.85;;;5.75;;
23001;SDS011;11667;51.706;4.856;2023-07-31T01:14:22;17.65;;;5.50;;
23001;SDS011;11667;51.706;4.856;2023-07-31T01:16:52;18.90;;;4.90;;
23001;SDS011;11667;51.706;4.856;2023-07-31T01:19:22;16.65;;;4.97;;
23001;SDS011;11667;51.706;4.856;2023-07-31T01:27:26;16.50;;;5.67;;
23001;SDS011;11667;51.706;4.856;2023-07-31T01:32:41;16.57;;;4.53;;
23001;SDS011;11667;51.706;4.856;2023-07-31T01:35:12;22.50;;;6.05;;
23001;SDS011;11667;51.706;4.856;2023-07-31T01:37:41;17.75;;;5.35;;
23001;SDS011;11667;51.706;4.856;2023-07-31T01:40:10;20.27;;;5.20;;
23001;SDS011;11667;51.706;4.856;2023-07-31T01:42:40;29.75;;;6.25;;
23001;SDS011;11667;51.706;4.856;2023-07-31T01:45:10;20.62;;;5.08;;
23001;SDS011;11667;51.706;4.856;2023-07-31T01:47:40;21.93;;;5.15;;
23001;SDS011;11667;51.706;4.856;2023-07-31T01:50:11;25.62;;;6.85;;
23001;SDS011;11667;51.706;4.856;2023-07-31T01:52:41;23.52;;;5.97;;
23001;SDS011;11667;51.706;4.856;2023-07-31T01:55:11;21.57;;;5.25;;
23001;SDS011;11667;51.706;4.856;2023-07-31T01:57:40;19.52;;;5.42;;
23001;SDS011;11667;51.706;4.856;2023-07-31T02:00:10;16.70;;;5.45;;
23001;SDS011;11667;51.706;4.856;2023-07-31T02:02:39;19.32;;;5.85;;
23001;SDS011;11667;51.706;4.856;2023-07-31T02:05:15;26.68;;;6.22;;
23001;SDS011;11667;51.706;4.856;2023-07-31T02:07:39;20.35;;;5.62;;
23001;SDS011;11667;51.706;4.856;2023-07-31T02:10:09;21.05;;;5.17;;
23001;SDS011;11667;51.706;4.856;2023-07-31T02:12:38;18.62;;;4.85;;
23001;SDS011;11667;51.706;4.856;2023-07-31T02:15:08;19.82;;;5.50;;
23001;SDS011;11667;51.706;4.856;2023-07-31T02:17:37;20.72;;;5.72;;
23001;SDS011;11667;51.706;4.856;2023-07-31T02:20:07;17.20;;;4.78;;
23001;SDS011;11667;51.706;4.856;2023-07-31T02:22:37;22.07;;;5.22;;
23001;SDS011;11667;51.706;4.856;2023-07-31T02:25:06;16.75;;;4.72;;
23001;SDS011;11667;51.706;4.856;2023-07-31T02:27:36;13.15;;;4.62;;
23001;SDS011;11667;51.706;4.856;2023-07-31T02:30:06;20.00;;;5.17;;
23001;SDS011;11667;51.706;4.856;2023-07-31T02:32:36;19.92;;;5.58;;
23001;SDS011;11667;51.706;4.856;2023-07-31T02:35:06;17.37;;;5.50;;
23001;SDS011;11667;51.706;4.856;2023-07-31T02:37:36;17.77;;;5.22;;
23001;SDS011;11667;51.706;4.856;2023-07-31T02:40:06;23.83;;;5.25;;
23001;SDS011;11667;51.706;4.856;2023-07-31T02:42:36;23.42;;;5.47;;
23001;SDS011;11667;51.706;4.856;2023-07-31T02:45:06;35.35;;;5.90;;
23001;SDS011;11667;51.706;4.856;2023-07-31T02:47:36;20.45;;;6.08;;
23001;SDS011;11667;51.706;4.856;2023-07-31T02:50:06;20.30;;;5.50;;
23001;SDS011;11667;51.706;4.856;2023-07-31T02:52:36;11.50;;;4.47;;
23001;SDS011;11667;51.706;4.856;2023-07-31T02:55:05;19.60;;;5.05;;
23001;SDS011;11667;51.706;4.856;2023-07-31T02:57:37;14.53;;;5.42;;
23001;SDS011;11667;51.706;4.856;2023-07-31T03:00:06;17.95;;;5.80;;
23001;SDS011;11667;51.706;4.856;2023-07-31T03:02:37;17.32;;;5.37;;
23001;SDS011;11667;51.706;4.856;2023-07-31T03:05:06;16.77;;;4.97;;
23001;SDS011;11667;51.706;4.856;2023-07-31T03:07:36;15.93;;;5.67;;
23001;SDS011;11667;51.706;4.856;2023-07-31T03:10:06;16.55;;;4.30;;
23001;SDS011;11667;51.706;4.856;2023-07-31T03:12:36;17.87;;;5.03;;
23001;SDS011;11667;51.706;4.856;2023-07-31T03:15:06;19.00;;;5.28;;
23001;SDS011;11667;51.706;4.856;2023-07-31T03:17:36;20.37;;;5.97;;
23001;SDS011;11667;51.706;4.856;2023-07-31T03:20:05;20.55;;;5.40;;
23001;SDS011;11667;51.706;4.856;2023-07-31T03:22:36;17.75;;;4.87;;
23001;SDS011;11667;51.706;4.856;2023-07-31T03:25:06;18.98;;;5.28;;
23001;SDS011;11667;51.706;4.856;2023-07-31T03:27:37;20.40;;;5.63;;
23001;SDS011;11667;51.706;4.856;2023-07-31T03:30:07;19.12;;;4.83;;
23001;SDS011;11667;51.706;4.856;2023-07-31T03:32:36;20.48;;;5.10;;
23001;SDS011;11667;51.706;4.856;2023-07-31T03:35:06;18.32;;;5.20;;
23001;SDS011;11667;51.706;4.856;2023-07-31T03:37:35;19.60;;;5.78;;
23001;SDS011;11667;51.706;4.856;2023-07-31T03:40:08;15.72;;;5.40;;
23001;SDS011;11667;51.706;4.856;2023-07-31T03:42:38;22.07;;;5.75;;
23001;SDS011;11667;51.706;4.856;2023-07-31T03:45:08;19.50;;;4.97;;
23001;SDS011;11667;51.706;4.856;2023-07-31T03:47:37;18.27;;;5.40;;
23001;SDS011;11667;51.706;4.856;2023-07-31T03:50:08;19.17;;;5.42;;
23001;SDS011;11667;51.706;4.856;2023-07-31T03:52:37;19.40;;;5.12;;
23001;SDS011;11667;51.706;4.856;2023-07-31T03:55:07;15.45;;;5.00;;
23001;SDS011;11667;51.706;4.856;2023-07-31T03:57:37;16.40;;;4.35;;
23001;SDS011;11667;51.706;4.856;2023-07-31T04:00:06;13.68;;;4.60;;
23001;SDS011;11667;51.706;4.856;2023-07-31T04:02:40;16.42;;;4.58;;
23001;SDS011;11667;51.706;4.856;2023-07-31T04:05:10;14.90;;;4.40;;
23001;SDS011;11667;51.706;4.856;2023-07-31T04:07:39;16.70;;;4.80;;
23001;SDS011;11667;51.706;4.856;2023-07-31T04:10:09;17.27;;;4.33;;
23001;SDS011;11667;51.706;4.856;2023-07-31T04:12:40;14.55;;;4.35;;
23001;SDS011;11667;51.706;4.856;2023-07-31T04:15:09;15.15;;;4.00;;
23001;SDS011;11667;51.706;4.856;2023-07-31T04:17:39;15.48;;;5.03;;
23001;SDS011;11667;51.706;4.856;2023-07-31T04:20:08;14.80;;;4.95;;
23001;SDS011;11667;51.706;4.856;2023-07-31T04:22:38;14.90;;;4.70;;
23001;SDS011;11667;51.706;4.856;2023-07-31T04:25:08;17.85;;;4.95;;
23001;SDS011;11667;51.706;4.856;2023-07-31T04:27:37;18.62;;;4.75;;
23001;SDS011;11667;51.706;4.856;2023-07-31T04:30:08;18.27;;;4.83;;
23001;SDS011;11667;51.706;4.856;2023-07-31T04:32:38;14.43;;;4.05;;
23001;SDS011;11667;51.706;4.856;2023-07-31T04:35:07;16.32;;;4.95;;
23001;SDS011;11667;51.706;4.856;2023-07-31T04:37:36;15.25;;;4.58;;
23001;SDS011;11667;51.706;4.856;2023-07-31T04:40:06;19.20;;;4.53;;
23001;SDS011;11667;51.706;4.856;2023-07-31T04:42:36;19.80;;;5.12;;
23001;SDS011;11667;51.706;4.856;2023-07-31T04:45:05;13.70;;;5.03;;
23001;SDS011;11667;51.706;4.856;2023-07-31T04:47:36;16.00;;;5.37;;
23001;SDS011;11667;51.706;4.856;2023-07-31T04:50:06;20.50;;;5.75;;
23001;SDS011;11667;51.706;4.856;2023-07-31T04:52:36;16.82;;;5.55;;
23001;SDS011;11667;51.706;4.856;2023-07-31T04:55:06;20.17;;;6.58;;
23001;SDS011;11667;51.706;4.856;2023-07-31T04:57:35;20.82;;;5.83;;
23001;SDS011;11667;51.706;4.856;2023-07-31T05:00:05;21.82;;;6.42;;
23001;SDS011;11667;51.706;4.856;2023-07-31T05:02:35;17.52;;;5.55;;
23001;SDS011;11667;51.706;4.856;2023-07-31T05:05:04;15.32;;;5.53;;
23001;SDS011;11667;51.706;4.856;2023-07-31T05:07:34;19.30;;;5.45;;
23001;SDS011;11667;51.706;4.856;2023-07-31T05:10:05;13.83;;;5.90;;
23001;SDS011;11667;51.706;4.856;2023-07-31T05:12:34;15.93;;;5.62;;
23001;SDS011;11667;51.706;4.856;2023-07-31T05:15:04;15.72;;;5.65;;
23001;SDS011;11667;51.706;4.856;2023-07-31T05:17:34;15.68;;;5.70;;
23001;SDS011;11667;51.706;4.856;2023-07-31T05:20:04;19.42;;;5.78;;
23001;SDS011;11667;51.706;4.856;2023-07-31T05:22:34;15.63;;;5.53;;
23001;SDS011;11667;51.706;4.856;2023-07-31T05:25:03;22.50;;;6.72;;
23001;SDS011;11667;51.706;4.856;2023-07-31T05:27:33;22.87;;;5.97;;
23001;SDS011;11667;51.706;4.856;2023-07-31T05:30:02;12.98;;;5.10;;
23001;SDS011;11667;51.706;4.856;2023-07-31T05:32:33;17.25;;;5.05;;
23001;SDS011;11667;51.706;4.856;2023-07-31T05:35:02;15.90;;;5.03;;
23001;SDS011;11667;51.706;4.856;2023-07-31T05:37:32;9.35;;;3.98;;
23001;SDS011;11667;51.706;4.856;2023-07-31T05:40:01;14.33;;;4.50;;
23001;SDS011;11667;51.706;4.856;2023-07-31T05:42:31;12.90;;;4.55;;
23001;SDS011;11667;51.706;4.856;2023-07-31T05:45:01;12.68;;;4.62;;
23001;SDS011;11667;51.706;4.856;2023-07-31T05:47:30;12.90;;;4.72;;
23001;SDS011;11667;51.706;4.856;2023-07-31T05:50:03;10.68;;;4.65;;
23001;SDS011;11667;51.706;4.856;2023-07-31T05:52:33;14.25;;;4.67;;
23001;SDS011;11667;51.706;4.856;2023-07-31T05:55:02;11.90;;;4.58;;
23001;SDS011;11667;51.706;4.856;2023-07-31T05:57:32;11.63;;;4.53;;
23001;SDS011;11667;51.706;4.856;2023-07-31T06:00:02;15.23;;;5.17;;
23001;SDS011;11667;51.706;4.856;2023-07-31T06:02:33;11.05;;;4.67;;
23001;SDS011;11667;51.706;4.856;2023-07-31T06:05:05;13.80;;;5.08;;
23001;SDS011;11667;51.706;4.856;2023-07-31T06:07:35;9.88;;;4.80;;
23001;SDS011;11667;51.706;4.856;2023-07-31T06:10:04;11.75;;;5.47;;
23001;SDS011;11667;51.706;4.856;2023-07-31T06:12:34;10.08;;;4.47;;
23001;SDS011;11667;51.706;4.856;2023-07-31T06:15:05;10.20;;;4.80;;
23001;SDS011;11667;51.706;4.856;2023-07-31T06:17:34;14.28;;;5.05;;
23001;SDS011;11667;51.706;4.856;2023-07-31T06:20:05;15.70;;;4.95;;
23001;SDS011;11667;51.706;4.856;2023-07-31T06:22:35;10.98;;;5.08;;
23001;SDS011;11667;51.706;4.856;2023-07-31T06:25:05;13.80;;;5.62;;
23001;SDS011;11667;51.706;4.856;2023-07-31T06:27:38;12.93;;;5.25;;
23001;SDS011;11667;51.706;4.856;2023-07-31T06:30:07;9.38;;;4.78;;
23001;SDS011;11667;51.706;4.856;2023-07-31T06:32:37;11.93;;;5.50;;
23001;SDS011;11667;51.706;4.856;2023-07-31T06:35:08;11.90;;;5.28;;
23001;SDS011;11667;51.706;4.856;2023-07-31T06:37:37;13.08;;;5.55;;
23001;SDS011;11667;51.706;4.856;2023-07-31T06:40:08;9.80;;;5.15;;
23001;SDS011;11667;51.706;4.856;2023-07-31T06:42:38;13.80;;;6.03;;
23001;SDS011;11667;51.706;4.856;2023-07-31T06:45:08;9.58;;;5.42;;
23001;SDS011;11667;51.706;4.856;2023-07-31T06:47:37;12.65;;;5.80;;
23001;SDS011;11667;51.706;4.856;2023-07-31T06:50:07;13.70;;;5.80;;
23001;SDS011;11667;51.706;4.856;2023-07-31T06:52:37;11.48;;;5.55;;
23001;SDS011;11667;51.706;4.856;2023-07-31T06:55:16;11.50;;;5.75;;
23001;SDS011;11667;51.706;4.856;2023-07-31T06:57:48;12.65;;;6.30;;
23001;SDS011;11667;51.706;4.856;2023-07-31T07:00:19;14.73;;;5.87;;
23001;SDS011;11667;51.706;4.856;2023-07-31T07:02:51;13.58;;;6.10;;
23001;SDS011;11667;51.706;4.856;2023-07-31T07:05:21;10.45;;;5.62;;
23001;SDS011;11667;51.706;4.856;2023-07-31T07:07:50;11.12;;;5.45;;
23001;SDS011;11667;51.706;4.856;2023-07-31T07:10:20;9.73;;;5.20;;
23001;SDS011;11667;51.706;4.856;2023-07-31T07:12:49;9.58;;;4.65;;
23001;SDS011;11667;51.706;4.856;2023-07-31T07:15:19;8.85;;;4.75;;
23001;SDS011;11667;51.706;4.856;2023-07-31T07:17:48;8.30;;;4.47;;
23001;SDS011;11667;51.706;4.856;2023-07-31T07:20:18;9.83;;;4.85;;
23001;SDS011;11667;51.706;4.856;2023-07-31T07:22:47;7.87;;;4.33;;
23001;SDS011;11667;51.706;4.856;2023-07-31T07:25:17;9.40;;;4.83;;
23001;SDS011;11667;51.706;4.856;2023-07-31T07:27:46;9.53;;;5.20;;
23001;SDS011;11667;51.706;4.856;2023-07-31T07:30:15;10.53;;;5.50;;
23001;SDS011;11667;51.706;4.856;2023-07-31T07:32:45;9.95;;;5.47;;
23001;SDS011;11667;51.706;4.856;2023-07-31T07:35:14;9.90;;;5.60;;
23001;SDS011;11667;51.706;4.856;2023-07-31T07:37:44;9.45;;;5.40;;
23001;SDS011;11667;51.706;4.856;2023-07-31T07:40:13;9.75;;;5.53;;
23001;SDS011;11667;51.706;4.856;2023-07-31T07:42:43;9.50;;;5.30;;
23001;SDS011;11667;51.706;4.856;2023-07-31T07:45:12;10.93;;;5.42;;
23001;SDS011;11667;51.706;4.856;2023-07-31T07:50:41;9.85;;;5.40;;
23001;SDS011;11667;51.706;4.856;2023-07-31T07:53:10;10.95;;;5.10;;
23001;SDS011;11667;51.706;4.856;2023-07-31T07:55:39;10.98;;;5.40;;
23001;SDS011;11667;51.706;4.856;2023-07-31T07:58:09;11.35;;;5.80;;
23001;SDS011;11667;51.706;4.856;2023-07-31T08:00:38;9.75;;;5.95;;
23001;SDS011;11667;51.706;4.856;2023-07-31T08:03:07;10.15;;;5.70;;
23001;SDS011;11667;51.706;4.856;2023-07-31T08:05:37;9.83;;;5.47;;
23001;SDS011;11667;51.706;4.856;2023-07-31T08:08:07;14.70;;;6.37;;
23001;SDS011;11667;51.706;4.856;2023-07-31T08:10:36;12.03;;;6.70;;
23001;SDS011;11667;51.706;4.856;2023-07-31T08:13:06;12.78;;;6.55;;
23001;SDS011;11667;51.706;4.856;2023-07-31T08:15:35;12.90;;;7.00;;
23001;SDS011;11667;51.706;4.856;2023-07-31T08:18:04;12.40;;;6.72;;
23001;SDS011;11667;51.706;4.856;2023-07-31T08:20:34;14.07;;;7.15;;
23001;SDS011;11667;51.706;4.856;2023-07-31T08:23:04;13.75;;;6.67;;
23001;SDS011;11667;51.706;4.856;2023-07-31T08:25:36;12.37;;;7.05;;
23001;SDS011;11667;51.706;4.856;2023-07-31T08:28:06;16.15;;;7.28;;
23001;SDS011;11667;51.706;4.856;2023-07-31T08:30:35;14.18;;;7.72;;
23001;SDS011;11667;51.706;4.856;2023-07-31T08:33:05;13.48;;;7.25;;
23001;SDS011;11667;51.706;4.856;2023-07-31T08:35:34;15.32;;;8.03;;
23001;SDS011;11667;51.706;4.856;2023-07-31T08:38:04;18.92;;;8.33;;
23001;SDS011;11667;51.706;4.856;2023-07-31T08:40:39;17.27;;;8.08;;
23001;SDS011;11667;51.706;4.856;2023-07-31T08:43:06;17.02;;;8.98;;
23001;SDS011;11667;51.706;4.856;2023-07-31T08:45:37;15.50;;;8.45;;
23001;SDS011;11667;51.706;4.856;2023-07-31T08:48:07;17.57;;;8.53;;
23001;SDS011;11667;51.706;4.856;2023-07-31T08:50:37;17.82;;;7.97;;
23001;SDS011;11667;51.706;4.856;2023-07-31T08:53:07;15.55;;;8.28;;
23001;SDS011;11667;51.706;4.856;2023-07-31T08:55:37;15.93;;;8.40;;
23001;SDS011;11667;51.706;4.856;2023-07-31T08:58:07;15.18;;;7.87;;
23001;SDS011;11667;51.706;4.856;2023-07-31T09:00:37;16.20;;;7.92;;
23001;SDS011;11667;51.706;4.856;2023-07-31T09:03:13;21.37;;;8.28;;
23001;SDS011;11667;51.706;4.856;2023-07-31T09:05:41;16.05;;;7.17;;
23001;SDS011;11667;51.706;4.856;2023-07-31T09:08:12;12.98;;;6.97;;
23001;SDS011;11667;51.706;4.856;2023-07-31T09:10:43;13.85;;;7.72;;
23001;SDS011;11667;51.706;4.856;2023-07-31T09:13:17;12.50;;;6.53;;
23001;SDS011;11667;51.706;4.856;2023-07-31T09:15:47;12.28;;;6.40;;
23001;SDS011;11667;51.706;4.856;2023-07-31T09:18:16;11.78;;;6.28;;
23001;SDS011;11667;51.706;4.856;2023-07-31T09:21:00;10.50;;;6.67;;
23001;SDS011;11667;51.706;4.856;2023-07-31T09:23:40;15.48;;;5.80;;
23001;SDS011;11667;51.706;4.856;2023-07-31T09:26:11;7.90;;;5.72;;
23001;SDS011;11667;51.706;4.856;2023-07-31T09:28:41;9.98;;;5.40;;
23001;SDS011;11667;51.706;4.856;2023-07-31T09:31:11;8.20;;;5.47;;
23001;SDS011;11667;51.706;4.856;2023-07-31T09:33:54;9.60;;;5.03;;
23001;SDS011;11667;51.706;4.856;2023-07-31T09:36:25;7.70;;;4.92;;
23001;SDS011;11667;51.706;4.856;2023-07-31T09:38:58;7.90;;;5.28;;
23001;SDS011;11667;51.706;4.856;2023-07-31T09:41:31;10.05;;;5.53;;
23001;SDS011;11667;51.706;4.856;2023-07-31T09:46:34;11.45;;;5.10;;
23001;SDS011;11667;51.706;4.856;2023-07-31T09:49:07;7.62;;;4.55;;
23001;SDS011;11667;51.706;4.856;2023-07-31T09:51:41;9.55;;;5.53;;
23001;SDS011;11667;51.706;4.856;2023-07-31T09:54:14;11.60;;;5.30;;
23001;SDS011;11667;51.706;4.856;2023-07-31T09:56:48;7.70;;;4.80;;
23001;SDS011;11667;51.706;4.856;2023-07-31T09:59:18;5.92;;;4.03;;
23001;SDS011;11667;51.706;4.856;2023-07-31T10:01:49;7.77;;;3.87;;
23001;SDS011;11667;51.706;4.856;2023-07-31T10:04:19;5.33;;;4.05;;
23001;SDS011;11667;51.706;4.856;2023-07-31T10:09:20;6.53;;;4.30;;
23001;SDS011;11667;51.706;4.856;2023-07-31T10:11:58;6.62;;;4.10;;
23001;SDS011;11667;51.706;4.856;2023-07-31T10:14:24;5.72;;;4.00;;
23001;SDS011;11667;51.706;4.856;2023-07-31T10:16:58;5.20;;;3.90;;
23001;SDS011;11667;51.706;4.856;2023-07-31T10:19:28;6.97;;;4.30;;
23001;SDS011;11667;51.706;4.856;2023-07-31T10:21:59;8.48;;;4.20;;
23001;SDS011;11667;51.706;4.856;2023-07-31T10:24:29;8.75;;;4.03;;
23001;SDS011;11667;51.706;4.856;2023-07-31T10:26:59;4.62;;;3.77;;
23001;SDS011;11667;51.706;4.856;2023-07-31T10:29:30;5.70;;;3.98;;
23001;SDS011;11667;51.706;4.856;2023-07-31T10:32:01;6.90;;;4.10;;
23001;SDS011;11667;51.706;4.856;2023-07-31T10:34:35;7.22;;;4.40;;
23001;SDS011;11667;51.706;4.856;2023-07-31T10:37:20;6.22;;;4.12;;
23001;SDS011;11667;51.706;4.856;2023-07-31T10:39:56;5.25;;;3.87;;
23001;SDS011;11667;51.706;4.856;2023-07-31T10:42:31;5.05;;;3.90;;
23001;SDS011;11667;51.706;4.856;2023-07-31T10:45:05;6.85;;;4.10;;
23001;SDS011;11667;51.706;4.856;2023-07-31T10:47:39;6.53;;;4.00;;
23001;SDS011;11667;51.706;4.856;2023-07-31T10:50:18;6.37;;;3.77;;
23001;SDS011;11667;51.706;4.856;2023-07-31T10:55:40;6.85;;;4.22;;
23001;SDS011;11667;51.706;4.856;2023-07-31T10:58:12;5.85;;;4.12;;
23001;SDS011;11667;51.706;4.856;2023-07-31T11:00:43;5.97;;;4.00;;
23001;SDS011;11667;51.706;4.856;2023-07-31T11:03:14;5.80;;;4.37;;
23001;SDS011;11667;51.706;4.856;2023-07-31T11:08:30;6.78;;;4.90;;
23001;SDS011;11667;51.706;4.856;2023-07-31T11:13:45;7.40;;;5.65;;
23001;SDS011;11667;51.706;4.856;2023-07-31T11:16:21;10.95;;;6.78;;
23001;SDS011;11667;51.706;4.856;2023-07-31T11:18:52;9.13;;;6.40;;
23001;SDS011;11667;51.706;4.856;2023-07-31T11:21:24;9.65;;;6.60;;
23001;SDS011;11667;51.706;4.856;2023-07-31T11:23:57;10.75;;;6.80;;
23001;SDS011;11667;51.706;4.856;2023-07-31T11:26:27;9.23;;;6.40;;
23001;SDS011;11667;51.706;4.856;2023-07-31T11:28:56;8.63;;;6.42;;
23001;SDS011;11667;51.706;4.856;2023-07-31T11:31:25;8.25;;;5.97;;
23001;SDS011;11667;51.706;4.856;2023-07-31T11:34:10;8.70;;;6.28;;
23001;SDS011;11667;51.706;4.856;2023-07-31T11:36:35;9.33;;;6.87;;
23001;SDS011;11667;51.706;4.856;2023-07-31T11:39:06;12.37;;;7.62;;
23001;SDS011;11667;51.706;4.856;2023-07-31T11:41:42;10.40;;;7.62;;
23001;SDS011;11667;51.706;4.856;2023-07-31T11:44:11;10.43;;;7.87;;
23001;SDS011;11667;51.706;4.856;2023-07-31T11:46:42;10.78;;;7.10;;
23001;SDS011;11667;51.706;4.856;2023-07-31T11:49:12;11.43;;;7.55;;
23001;SDS011;11667;51.706;4.856;2023-07-31T11:51:41;8.55;;;7.12;;
23001;SDS011;11667;51.706;4.856;2023-07-31T11:54:11;9.03;;;7.50;;
23001;SDS011;11667;51.706;4.856;2023-07-31T11:56:41;8.73;;;6.83;;
23001;SDS011;11667;51.706;4.856;2023-07-31T11:59:12;10.25;;;7.78;;
23001;SDS011;11667;51.706;4.856;2023-07-31T12:01:42;9.93;;;7.70;;
23001;SDS011;11667;51.706;4.856;2023-07-31T12:04:11;8.90;;;6.40;;
23001;SDS011;11667;51.706;4.856;2023-07-31T12:06:41;7.72;;;6.53;;
23001;SDS011;11667;51.706;4.856;2023-07-31T12:09:10;7.90;;;5.72;;
23001;SDS011;11667;51.706;4.856;2023-07-31T12:11:43;6.17;;;5.00;;
23001;SDS011;11667;51.706;4.856;2023-07-31T12:14:29;6.45;;;5.20;;
23001;SDS011;11667;51.706;4.856;2023-07-31T12:16:54;6.30;;;5.35;;
23001;SDS011;11667;51.706;4.856;2023-07-31T12:19:28;9.48;;;6.78;;
23001;SDS011;11667;51.706;4.856;2023-07-31T12:21:59;10.53;;;7.47;;
23001;SDS011;11667;51.706;4.856;2023-07-31T12:24:29;8.50;;;6.95;;
23001;SDS011;11667;51.706;4.856;2023-07-31T12:26:58;10.00;;;6.92;;
23001;SDS011;11667;51.706;4.856;2023-07-31T12:29:34;12.03;;;7.22;;
23001;SDS011;11667;51.706;4.856;2023-07-31T12:32:19;9.23;;;6.37;;
23001;SDS011;11667;51.706;4.856;2023-07-31T12:34:49;10.50;;;7.05;;
23001;SDS011;11667;51.706;4.856;2023-07-31T12:37:18;11.08;;;6.90;;
23001;SDS011;11667;51.706;4.856;2023-07-31T12:39:49;14.53;;;6.62;;
23001;SDS011;11667;51.706;4.856;2023-07-31T12:42:18;10.60;;;6.90;;
23001;SDS011;11667;51.706;4.856;2023-07-31T12:44:48;12.50;;;7.28;;
23001;SDS011;11667;51.706;4.856;2023-07-31T12:47:17;12.90;;;8.25;;
23001;SDS011;11667;51.706;4.856;2023-07-31T12:49:47;14.73;;;8.75;;
23001;SDS011;11667;51.706;4.856;2023-07-31T12:52:16;15.45;;;9.05;;
23001;SDS011;11667;51.706;4.856;2023-07-31T12:54:46;18.57;;;9.70;;
23001;SDS011;11667;51.706;4.856;2023-07-31T12:57:15;16.02;;;9.43;;
23001;SDS011;11667;51.706;4.856;2023-07-31T12:59:44;15.45;;;9.03;;
23001;SDS011;11667;51.706;4.856;2023-07-31T13:02:14;17.25;;;9.05;;
23001;SDS011;11667;51.706;4.856;2023-07-31T13:04:45;15.03;;;8.10;;
23001;SDS011;11667;51.706;4.856;2023-07-31T13:07:15;17.10;;;8.88;;
23001;SDS011;11667;51.706;4.856;2023-07-31T13:09:48;13.60;;;8.68;;
23001;SDS011;11667;51.706;4.856;2023-07-31T13:12:17;16.62;;;9.73;;
23001;SDS011;11667;51.706;4.856;2023-07-31T13:14:46;15.58;;;9.08;;
23001;SDS011;11667;51.706;4.856;2023-07-31T13:17:17;18.60;;;10.10;;
23001;SDS011;11667;51.706;4.856;2023-07-31T13:19:48;18.23;;;9.50;;
23001;SDS011;11667;51.706;4.856;2023-07-31T13:22:18;18.07;;;9.30;;
23001;SDS011;11667;51.706;4.856;2023-07-31T13:24:47;17.60;;;9.10;;
23001;SDS011;11667;51.706;4.856;2023-07-31T13:27:17;16.12;;;9.58;;
23001;SDS011;11667;51.706;4.856;2023-07-31T13:29:48;18.17;;;9.50;;
23001;SDS011;11667;51.706;4.856;2023-07-31T13:32:18;1.98;;;0.85;;
23001;SDS011;11667;51.706;4.856;2023-07-31T13:37:51;1.35;;;1.20;;
23001;SDS011;11667;51.706;4.856;2023-07-31T13:40:21;0.68;;;0.68;;
23001;SDS011;11667;51.706;4.856;2023-07-31T13:42:51;0.88;;;0.88;;
23001;SDS011;11667;51.706;4.856;2023-07-31T13:48:39;2.20;;;1.30;;
23001;SDS011;11667;51.706;4.856;2023-07-31T13:51:08;1.80;;;0.85;;
23001;SDS011;11667;51.706;4.856;2023-07-31T13:53:38;3.50;;;2.12;;
23001;SDS011;11667;51.706;4.856;2023-07-31T13:56:07;0.65;;;0.65;;
23001;SDS011;11667;51.706;4.856;2023-07-31T13:58:36;2.50;;;1.15;;
23001;SDS011;11667;51.706;4.856;2023-07-31T14:01:06;1.42;;;1.32;;
23001;SDS011;11667;51.706;4.856;2023-07-31T14:03:35;0.33;;;0.33;;
23001;SDS011;11667;51.706;4.856;2023-07-31T14:06:05;0.28;;;0.28;;
23001;SDS011;11667;51.706;4.856;2023-07-31T14:08:34;4.85;;;1.70;;
23001;SDS011;11667;51.706;4.856;2023-07-31T14:11:03;0.62;;;0.62;;
23001;SDS011;11667;51.706;4.856;2023-07-31T14:13:33;0.50;;;0.50;;
23001;SDS011;11667;51.706;4.856;2023-07-31T14:16:02;0.82;;;0.82;;
23001;SDS011;11667;51.706;4.856;2023-07-31T14:18:32;0.25;;;0.25;;
23001;SDS011;11667;51.706;4.856;2023-07-31T14:21:01;0.82;;;0.82;;
23001;SDS011;11667;51.706;4.856;2023-07-31T14:23:31;0.30;;;0.30;;
23001;SDS011;11667;51.706;4.856;2023-07-31T14:26:00;1.47;;;1.12;;
23001;SDS011;11667;51.706;4.856;2023-07-31T14:28:30;1.40;;;1.02;;
23001;SDS011;11667;51.706;4.856;2023-07-31T14:30:59;1.72;;;1.62;;
23001;SDS011;11667;51.706;4.856;2023-07-31T14:33:29;0.60;;;0.60;;
23001;SDS011;11667;51.706;4.856;2023-07-31T14:35:58;0.50;;;0.50;;
23001;SDS011;11667;51.706;4.856;2023-07-31T14:38:28;0.10;;;0.10;;
23001;SDS011;11667;51.706;4.856;2023-07-31T14:40:57;0.30;;;0.30;;
23001;SDS011;11667;51.706;4.856;2023-07-31T14:43:27;0.15;;;0.15;;
23001;SDS011;11667;51.706;4.856;2023-07-31T14:45:56;19.65;;;0.75;;
23001;SDS011;11667;51.706;4.856;2023-07-31T14:48:27;0.40;;;0.40;;
23001;SDS011;11667;51.706;4.856;2023-07-31T14:50:57;0.30;;;0.30;;
23001;SDS011;11667;51.706;4.856;2023-07-31T14:53:26;0.08;;;0.08;;
23001;SDS011;11667;51.706;4.856;2023-07-31T14:55:55;0.17;;;0.17;;
23001;SDS011;11667;51.706;4.856;2023-07-31T14:58:25;0.10;;;0.10;;
23001;SDS011;11667;51.706;4.856;2023-07-31T15:00:54;0.13;;;0.13;;
23001;SDS011;11667;51.706;4.856;2023-07-31T15:03:24;0.13;;;0.13;;
23001;SDS011;11667;51.706;4.856;2023-07-31T15:05:54;0.33;;;0.33;;
23001;SDS011;11667;51.706;4.856;2023-07-31T15:08:23;0.20;;;0.20;;
23001;SDS011;11667;51.706;4.856;2023-07-31T15:10:54;3.20;;;0.80;;
23001;SDS011;11667;51.706;4.856;2023-07-31T15:13:25;0.20;;;0.20;;
23001;SDS011;11667;51.706;4.856;2023-07-31T15:15:54;0.00;;;0.00;;
23001;SDS011;11667;51.706;4.856;2023-07-31T15:18:32;0.50;;;0.50;;
23001;SDS011;11667;51.706;4.856;2023-07-31T15:21:01;0.78;;;0.78;;
23001;SDS011;11667;51.706;4.856;2023-07-31T15:23:32;0.00;;;0.00;;
23001;SDS011;11667;51.706;4.856;2023-07-31T15:26:01;0.42;;;0.42;;
23001;SDS011;11667;51.706;4.856;2023-07-31T15:28:33;0.10;;;0.10;;
23001;SDS011;11667;51.706;4.856;2023-07-31T15:31:05;1.00;;;0.35;;